<<    Oktober 2013    >>
Datum    Temp.       Tempmin      Tempmax    Taup.       Taup.min      Taup.max    Feuchte    Feuchtemin    Feuchtemax    Druck    Druckmin    Druckmax    Regen    Wind    Benmax  
  01.10.2013  14,6    10,9    23:59    19,2    16:29  3,2    -0,1    23:59    5,3    14:29  47,2    36    16:55    56    08:46  1013,3    1011    02:35    1018    22:49  0,0  1,7  13,7  
  02.10.2013  11,9    7,1    06:49    18,0    16:09  1,1    -0,3    01:04    2,6    10:31  49,0    35    15:20    65    07:18  1018,4    1016    17:04    1020    21:52  0,0  2,8  15,5  
  03.10.2013  12,8    8,4    08:00    17,9    15:58  -0,5    -2,4    10:07    1,9    15:18  40,6    34    14:44    48    05:05  1018,8    1015    17:19    1020    00:00  0,0  4,5  20,9  
  04.10.2013  13,7    10,2    08:40    17,8    16:41  8,3    -1,1    01:48    12,9    16:35  72,6    36    01:48    91    10:56  1016,8    1015    17:18    1019    11:48  2,8  2,8  17,3  
  05.10.2013  15,3    13,3    05:17    18,0    16:55  14,1    11,3    01:06    17,2    16:12  92,7    82    00:01    98    05:07  1017,1    1015    01:58    1022    23:59  5,7  1,2  10,8  
  06.10.2013  14,3    11,2    23:59    18,0    15:19  10,9    7,1    15:48    13,7    00:00  82,1    51    15:48    98    03:33  1024,5    1021    01:18    1027    19:48  0,0  1,3  10,1  
  07.10.2013  12,9    7,3    06:59    19,6    16:08  9,1    6,5    06:59    12,9    11:32  80,1    49    15:17    98    08:16  1026,3    1023    18:18    1028    08:03  0,0  0,6  10,1  
  08.10.2013  15,1    13,3    00:33    18,1    15:17  11,6    8,5    15:45    13,7    10:01  80,5    55    15:41    95    08:35  1024,0    1023    03:48    1026    00:00  0,0  0,6  6,8  
  09.10.2013  14,8    12,7    21:13    17,3    15:21  12,0    10,8    02:00    14,3    13:40  83,6    74    11:28    93    21:48  1017,2    1009    23:05    1024    00:00  0,0  1,3  10,1  
  10.10.2013  9,3    7,3    23:57    13,2    00:00  8,1    5,6    18:30    11,0    00:14  92,4    70    17:12    98    05:20  1008,5    1007    06:17    1012    23:47  9,6  1,2  10,4  
  11.10.2013  7,5    5,8    02:29    9,5    14:52  7,0    5,4    02:29    8,6    14:52  96,4    90    15:30    98    02:34  1015,5    1011    00:48    1018    23:59  0,9  0,4  5,4  
  12.10.2013  6,4    2,5    08:08    8,8    15:16  5,8    2,2    08:08    7,6    12:51  96,0    88    14:42    98    00:00  1019,5    1017    17:19    1022    08:17  0,0  0,3  5,8  
  13.10.2013  8,9    6,3    04:17    11,1    14:37  6,2    3,7    16:34    8,9    11:31  84,9    63    16:07    98    00:00  1016,8    1016    00:32    1019    11:51  0,0  3,3  16,9  
  14.10.2013  11,4    8,5    03:11    15,1    13:17  7,8    5,3    01:01    11,7    20:15  79,8    57    13:27    98    20:15  1014,6    1009    23:59    1017    00:00  11,3  2,7  15,8  
  15.10.2013  10,9    9,1    07:00    12,9    14:11  9,6    8,0    17:51    11,5    00:12  92,5    76    17:18    98    00:00  1008,8    1008    05:01    1010    00:01  0,9  1,4  9,7  
  16.10.2013  10,9    9,0    08:10    13,6    14:46  9,6    8,7    08:10    11,4    12:43  92,1    79    15:30    98    00:00  1013,2    1009    00:00    1016    09:47  0,0  1,1  6,8  
  17.10.2013  13,4    10,0    23:59    16,6    14:48  11,2    9,2    23:23    12,3    15:59  87,6    69    13:29    98    02:32  1013,2    1011    04:16    1016    23:59  6,8  2,8  17,6  
  18.10.2013  12,7    9,3    00:59    17,1    15:03  10,7    8,6    00:48    14,3    11:59  88,5    65    16:00    98    01:31  1017,6    1016    00:00    1019    08:59  0,0  0,4  5,8  
  19.10.2013  14,3    10,2    07:36    20,4    16:10  10,7    7,3    06:29    14,8    21:37  79,4    62    13:55    95    23:36  1011,4    1008    16:15    1016    00:00  0,0  2,4  16,6  
  20.10.2013  15,9    13,3    07:14    19,2    16:31  13,9    12,0    18:44    16,1    13:38  89,0    68    16:57    98    05:49  1011,5    1010    00:00    1012    23:59  0,0  1,1  10,1  
  21.10.2013  15,4    12,0    04:31    19,4    15:15  12,9    11,7    04:31    15,3    12:22  86,2    66    16:45    98    00:00  1013,1    1011    21:44    1014    01:14  1,8  1,6  13,0  
  22.10.2013  17,9    14,7    00:35    23,0    15:19  13,9    12,0    15:44    15,9    10:59  79,1    50    15:44    98    23:59  1006,6    1001    21:31    1012    00:00  0,0  2,6  17,3  
  23.10.2013  16,9    15,2    00:28    20,4    15:30  14,1    11,1    16:15    17,7    11:43  85,0    58    16:15    98    00:00  1004,6    1002    04:59    1011    23:45  11,3  3,3  15,8  
  24.10.2013  14,0    10,7    08:45    17,2    15:46  11,2    9,7    19:53    13,9    10:58  84,0    63    16:03    98    09:45  1015,9    1011    00:00    1019    11:58  0,0  0,3  6,8  
  25.10.2013  14,8    11,7    00:00    17,8    16:29  13,5    11,2    00:00    15,8    22:06  92,2    83    16:49    98    23:59  1012,4    1010    17:58    1016    00:00  8,6  1,9  16,2  
  26.10.2013  17,1    14,7    06:40    20,6    15:34  15,5    14,4    06:40    19,5    12:53  90,7    71    15:15    98    00:00  1010,8    1008    23:59    1013    10:37  2,8  1,3  11,9  
  27.10.2013  15,4    13,3    19:31    18,4    11:26  10,7    6,4    15:59    15,8    00:53  75,1    52    12:08    98    03:02  1005,2    1003    07:58    1008    00:00  2,1  3,6  19,4  
  28.10.2013  14,9    11,1    23:59    19,0    12:38  9,8    6,2    23:00    13,5    03:42  72,6    52    16:17    97    02:32  1000,3    994    09:57    1008    23:59  1,8  5,3  34,2  
  29.10.2013  11,3    8,1    23:59    14,6    14:48  5,3    3,3    15:20    7,2    20:21  67,9    48    14:57    86    20:21  1012,2    1007    00:12    1019    22:44  0,0  2,7  11,9  
  30.10.2013  8,3    5,1    22:56    13,1    13:41  4,7    2,1    14:28    6,7    01:59  79,6    49    14:06    95    07:24  1023,4    1018    00:00    1027    23:59  2,8  1,3  12,2  
  31.10.2013  8,6    4,1    07:26    13,9    14:37  4,4    2,5    16:07    7,4    10:19  77,6    48    14:32    98    05:54  1024,2    1020    20:48    1028    00:27  0,0  2,5  11,5  
 
  Gesamt  12,9  2,5            23,0            9,2  -2,4            19,5            80,5  34            98            1014,7  994            1028            69,1  1,9  34,2  
 
  Mittelwert  12,9  9,9            16,7            9,2  6,7            12,0            80,5  60,6            92,9            1014,7  1011,5            1017,9            2,2  1,9  13,1  
  Minimum  6,4  2,5            8,8            -0,5  -2,4            1,9            40,6  34,0            48,0            1000,3  994,0            1008,0            0,0  0,3  5,4  
  Maximum  17,9  15,2            23,0            15,5  14,4            19,5            96,4  90,0            98,0            1026,3  1023,0            1028,0            11,3  5,3  34,2  

  Heie Tage    Tmax >=30C     0  
  Sommertage    Tmax >=25C     0  
  Warme Tage    Tmax >=20C     4  
  Kalte Tage    Tmax  <10C     2  
  Frosttage    Tmin  <0C     0  
  Eistage    Tmax  <0C     0  
  Regentage > 0 mm    14  
  Regentage > 2 mm    10  
  Regentage > 10 mm    2  
  Regentage > 20 mm    0